Time;durP1;ratioP1;P1;durP2;ratioP2;P2;SDS_P1;SDS_P2;PMS_P1;PMS_P2;Temp;Humidity;BMP_temperature;BMP_pressure;BME280_temperature;BME280_humidity;BME280_pressure;Samples;Min_cycle;Max_cycle;Signal;HPM_P1;HPM_P2
2024/03/15 00:01:53;;;;;;;;;5.00;5.00;;;;;;;;5082974;27;45329;-59
2024/03/15 00:04:19;;;;;;;;;3.33;3.33;;;;;;;;5083436;27;46328;-58
2024/03/15 00:06:44;;;;;;;;;4.00;4.00;;;;;;;;5082049;27;45152;-58
2024/03/15 00:09:09;;;;;;;;;3.67;3.67;;;;;;;;5082603;27;45383;-61
2024/03/15 00:11:34;;;;;;;;;6.00;4.00;;;;;;;;5077201;27;45432;-58
2024/03/15 00:13:59;;;;;;;;;4.00;4.00;;;;;;;;5083783;27;45457;-59
2024/03/15 00:16:25;;;;;;;;;4.00;4.00;;;;;;;;5082380;27;45196;-58
2024/03/15 00:18:50;;;;;;;;;7.33;4.00;;;;;;;;5084065;27;45310;-59
2024/03/15 00:21:16;;;;;;;;;4.67;4.33;;;;;;;;5082014;27;45301;-58
2024/03/15 00:23:42;;;;;;;;;5.00;4.33;;;;;;;;5081943;27;47261;-59
2024/03/15 00:26:08;;;;;;;;;4.00;4.00;;;;;;;;5079419;27;45406;-59
2024/03/15 00:28:35;;;;;;;;;5.00;3.00;;;;;;;;5083053;27;45333;-58
2024/03/15 00:31:00;;;;;;;;;7.00;4.67;;;;;;;;5082444;27;45405;-59
2024/03/15 00:33:25;;;;;;;;;3.33;3.33;;;;;;;;5082829;27;45626;-58
2024/03/15 00:35:51;;;;;;;;;5.00;5.00;;;;;;;;5078674;27;46090;-58
2024/03/15 00:38:16;;;;;;;;;4.00;4.00;;;;;;;;5075981;27;45811;-59
2024/03/15 00:40:41;;;;;;;;;4.00;4.00;;;;;;;;5082581;27;45393;-60
2024/03/15 00:43:06;;;;;;;;;2.33;2.33;;;;;;;;5082310;27;45476;-58
2024/03/15 00:45:31;;;;;;;;;6.00;4.00;;;;;;;;5090236;27;45404;-59
2024/03/15 00:47:57;;;;;;;;;6.33;5.00;;;;;;;;5088154;27;45500;-59
2024/03/15 00:50:22;;;;;;;;;3.00;3.00;;;;;;;;5082299;27;45481;-58
2024/03/15 00:52:48;;;;;;;;;5.67;3.67;;;;;;;;5081156;27;45507;-58
2024/03/15 00:55:13;;;;;;;;;3.33;2.00;;;;;;;;5091022;27;45220;-58
2024/03/15 00:57:38;;;;;;;;;4.33;4.33;;;;;;;;5085873;27;45329;-58
2024/03/15 01:00:04;;;;;;;;;3.67;3.67;;;;;;;;5087098;27;45381;-58
2024/03/15 01:02:29;;;;;;;;;2.67;2.67;;;;;;;;5083536;27;47368;-59
2024/03/15 01:04:55;;;;;;;;;4.67;4.33;;;;;;;;5088481;27;45207;-59
2024/03/15 01:07:20;;;;;;;;;10.00;4.67;;;;;;;;5086987;27;45293;-59
2024/03/15 01:09:45;;;;;;;;;4.67;3.67;;;;;;;;5086395;27;45217;-59
2024/03/15 01:12:10;;;;;;;;;4.67;3.00;;;;;;;;5084230;27;47145;-59
2024/03/15 01:14:35;;;;;;;;;4.00;4.00;;;;;;;;5082636;27;45501;-58
2024/03/15 01:17:00;;;;;;;;;7.00;3.00;;;;;;;;5086168;27;45270;-59
2024/03/15 01:19:26;;;;;;;;;6.00;4.67;;;;;;;;5076964;28;45160;-59
2024/03/15 01:21:52;;;;;;;;;4.00;4.00;;;;;;;;5082282;27;46861;-58
2024/03/15 01:24:17;;;;;;;;;4.00;4.00;;;;;;;;5084488;27;45298;-60
2024/03/15 01:26:43;;;;;;;;;3.00;2.67;;;;;;;;5083233;27;45356;-58
2024/03/15 01:29:08;;;;;;;;;4.33;4.33;;;;;;;;5086764;27;45750;-59
2024/03/15 01:31:33;;;;;;;;;2.67;2.00;;;;;;;;5089674;27;45459;-59
2024/03/15 01:33:59;;;;;;;;;2.33;2.33;;;;;;;;5089520;27;45467;-59
2024/03/15 01:36:24;;;;;;;;;2.67;2.67;;;;;;;;5088810;27;45420;-58
2024/03/15 01:38:49;;;;;;;;;2.67;2.67;;;;;;;;5088383;27;45332;-59
2024/03/15 01:41:14;;;;;;;;;4.00;1.67;;;;;;;;5078204;27;45427;-58
2024/03/15 01:43:47;;;;;;;;;2.67;1.67;;;;;;;;5078455;27;45352;-58
2024/03/15 01:46:12;;;;;;;;;4.33;3.33;;;;;;;;5086987;27;45440;-58
2024/03/15 01:48:38;;;;;;;;;3.33;2.67;;;;;;;;5075294;27;45680;-58
2024/03/15 01:51:03;;;;;;;;;4.00;2.00;;;;;;;;5086217;27;45594;-58
2024/03/15 01:53:29;;;;;;;;;2.00;2.00;;;;;;;;5087345;27;45531;-58
2024/03/15 01:55:55;;;;;;;;;4.00;3.00;;;;;;;;5086366;27;45357;-58
2024/03/15 01:58:20;;;;;;;;;1.67;1.67;;;;;;;;5091572;27;45668;-58
2024/03/15 02:00:46;;;;;;;;;4.33;1.67;;;;;;;;5090809;27;45591;-58
2024/03/15 02:03:11;;;;;;;;;2.33;2.33;;;;;;;;5083940;27;46021;-58
2024/03/15 02:05:36;;;;;;;;;1.00;1.00;;;;;;;;5091530;27;45428;-58
2024/03/15 02:08:03;;;;;;;;;2.67;2.67;;;;;;;;5088020;27;45448;-59
2024/03/15 02:10:28;;;;;;;;;3.00;3.00;;;;;;;;5083539;27;45626;-59
2024/03/15 02:12:53;;;;;;;;;4.33;2.00;;;;;;;;5082872;27;45449;-59
2024/03/15 02:15:18;;;;;;;;;1.67;1.67;;;;;;;;5090467;27;45330;-59
2024/03/15 02:17:43;;;;;;;;;3.00;1.50;;;;;;;;5090245;27;45424;-59
2024/03/15 02:20:12;;;;;;;;;3.33;1.00;;;;;;;;5079232;27;45608;-59
2024/03/15 02:22:37;;;;;;;;;2.00;0.67;;;;;;;;5078492;27;45443;-59
2024/03/15 02:25:02;;;;;;;;;2.00;2.00;;;;;;;;5089028;27;45397;-59
2024/03/15 02:27:28;;;;;;;;;2.00;1.67;;;;;;;;5092536;27;45238;-59
2024/03/15 02:29:54;;;;;;;;;1.00;1.00;;;;;;;;5085923;27;46115;-59
2024/03/15 02:32:22;;;;;;;;;1.00;1.00;;;;;;;;5086889;27;45454;-59
2024/03/15 02:34:47;;;;;;;;;3.25;1.75;;;;;;;;5089676;27;45529;-59
2024/03/15 02:37:16;;;;;;;;;1.00;1.00;;;;;;;;5080849;27;45622;-59
2024/03/15 02:39:41;;;;;;;;;2.33;0.67;;;;;;;;5088764;27;46231;-59
2024/03/15 02:42:06;;;;;;;;;2.00;0.67;;;;;;;;5076294;27;45469;-59
2024/03/15 02:44:31;;;;;;;;;1.00;1.00;;;;;;;;5076569;27;45310;-59
2024/03/15 02:46:57;;;;;;;;;1.67;1.67;;;;;;;;5091882;27;45597;-60
2024/03/15 02:49:22;;;;;;;;;3.00;1.67;;;;;;;;5088442;27;46187;-59
2024/03/15 02:51:47;;;;;;;;;0.67;0.67;;;;;;;;5084718;27;45524;-59
2024/03/15 02:54:12;;;;;;;;;4.00;2.33;;;;;;;;5088288;27;45461;-59
2024/03/15 02:56:38;;;;;;;;;3.33;1.33;;;;;;;;5091706;27;45371;-59
2024/03/15 02:59:03;;;;;;;;;1.00;1.00;;;;;;;;5079731;27;46176;-59
2024/03/15 03:01:28;;;;;;;;;2.33;1.33;;;;;;;;5085952;27;45369;-59
2024/03/15 03:03:56;;;;;;;;;0.67;0.67;;;;;;;;5078146;27;45633;-59
2024/03/15 03:06:22;;;;;;;;;1.67;1.67;;;;;;;;5090979;27;45458;-59
2024/03/15 03:08:47;;;;;;;;;2.00;1.00;;;;;;;;5088325;27;45557;-59
2024/03/15 03:11:15;;;;;;;;;1.67;1.67;;;;;;;;5082652;27;45648;-59
2024/03/15 03:13:40;;;;;;;;;3.00;3.00;;;;;;;;5088749;27;45232;-59
2024/03/15 03:16:05;;;;;;;;;1.00;1.00;;;;;;;;5090223;27;45300;-59
2024/03/15 03:18:30;;;;;;;;;0.00;0.00;;;;;;;;5088832;27;45526;-59
2024/03/15 03:20:56;;;;;;;;;0.67;0.67;;;;;;;;5090724;27;45248;-59
2024/03/15 03:23:24;;;;;;;;;2.75;1.25;;;;;;;;5081760;27;45289;-59
2024/03/15 03:25:51;;;;;;;;;0.67;0.67;;;;;;;;5086846;27;45311;-59
2024/03/15 03:28:17;;;;;;;;;0.00;0.00;;;;;;;;5088975;27;46220;-59
2024/03/15 03:30:43;;;;;;;;;0.00;0.00;;;;;;;;5089430;27;45385;-59
2024/03/15 03:33:08;;;;;;;;;2.33;2.33;;;;;;;;5085720;27;45480;-59
2024/03/15 03:35:33;;;;;;;;;2.00;1.67;;;;;;;;5085822;27;45393;-59
2024/03/15 03:37:59;;;;;;;;;1.67;1.33;;;;;;;;5086070;27;45532;-59
2024/03/15 03:40:24;;;;;;;;;1.67;1.67;;;;;;;;5082389;27;45261;-59
2024/03/15 03:42:50;;;;;;;;;2.67;0.67;;;;;;;;5077637;27;45434;-59
2024/03/15 03:45:19;;;;;;;;;0.67;0.67;;;;;;;;5076528;27;45341;-59
2024/03/15 03:47:44;;;;;;;;;2.67;1.67;;;;;;;;5087708;27;46248;-59
2024/03/15 03:50:11;;;;;;;;;2.67;2.67;;;;;;;;5087146;27;45337;-59
2024/03/15 03:52:39;;;;;;;;;1.00;1.00;;;;;;;;5087451;27;45730;-59
2024/03/15 03:55:05;;;;;;;;;2.00;2.00;;;;;;;;5086750;27;45605;-58
2024/03/15 03:57:30;;;;;;;;;0.50;0.50;;;;;;;;5087250;27;47036;-59
2024/03/15 03:59:55;;;;;;;;;0.00;0.00;;;;;;;;5082114;27;45344;-59
2024/03/15 04:02:21;;;;;;;;;0.67;0.67;;;;;;;;5085077;27;45380;-58
2024/03/15 04:04:46;;;;;;;;;1.00;1.00;;;;;;;;5082094;27;45236;-59
2024/03/15 04:07:11;;;;;;;;;0.67;0.67;;;;;;;;5078558;27;46366;-59
2024/03/15 04:09:36;;;;;;;;;0.50;0.50;;;;;;;;5087831;27;45338;-59
2024/03/15 04:12:01;;;;;;;;;0.50;0.50;;;;;;;;5082287;27;45374;-59
2024/03/15 04:14:27;;;;;;;;;0.00;0.00;;;;;;;;5089531;27;45439;-59
2024/03/15 04:16:54;;;;;;;;;0.00;0.00;;;;;;;;5090590;27;45377;-59
2024/03/15 04:19:20;;;;;;;;;0.75;0.75;;;;;;;;5092035;27;45349;-59
2024/03/15 04:21:45;;;;;;;;;1.00;0.67;;;;;;;;5088227;27;45361;-59
2024/03/15 04:24:11;;;;;;;;;2.67;1.67;;;;;;;;5079848;27;45424;-59
2024/03/15 04:26:37;;;;;;;;;1.67;0.33;;;;;;;;5081418;27;46407;-59
2024/03/15 04:29:02;;;;;;;;;0.00;0.00;;;;;;;;5085247;27;45649;-59
2024/03/15 04:31:30;;;;;;;;;0.67;0.67;;;;;;;;5086548;27;45266;-59
2024/03/15 04:33:55;;;;;;;;;0.00;0.00;;;;;;;;5084190;27;45427;-59
2024/03/15 04:36:22;;;;;;;;;1.00;1.00;;;;;;;;5090577;27;47129;-59
2024/03/15 04:38:47;;;;;;;;;1.67;0.67;;;;;;;;5086338;27;45327;-59
2024/03/15 04:41:14;;;;;;;;;1.00;1.00;;;;;;;;5090605;27;45342;-59
2024/03/15 04:43:40;;;;;;;;;0.50;0.50;;;;;;;;5078441;27;46158;-59
2024/03/15 04:46:07;;;;;;;;;0.75;0.75;;;;;;;;5088637;27;46582;-59
2024/03/15 04:48:32;;;;;;;;;1.50;0.00;;;;;;;;5085907;27;45329;-59
2024/03/15 04:50:58;;;;;;;;;0.00;0.00;;;;;;;;5079719;28;45294;-59
2024/03/15 04:53:23;;;;;;;;;0.00;0.00;;;;;;;;5087540;27;45433;-59
2024/03/15 04:55:49;;;;;;;;;1.33;1.33;;;;;;;;5087915;27;47152;-59
2024/03/15 04:58:14;;;;;;;;;0.33;0.33;;;;;;;;5077944;27;45279;-59
2024/03/15 05:00:41;;;;;;;;;0.50;0.50;;;;;;;;5078902;27;45479;-59
2024/03/15 05:03:06;;;;;;;;;2.00;0.50;;;;;;;;5078539;27;45303;-59
2024/03/15 05:05:32;;;;;;;;;0.00;0.00;;;;;;;;5081929;27;46197;-59
2024/03/15 05:07:57;;;;;;;;;0.67;0.67;;;;;;;;5093834;27;45233;-59
2024/03/15 05:10:22;;;;;;;;;0.00;0.00;;;;;;;;5087216;27;45457;-59
2024/03/15 05:12:49;;;;;;;;;1.00;0.67;;;;;;;;5080357;28;45441;-59
2024/03/15 05:15:14;;;;;;;;;1.00;1.00;;;;;;;;5090213;27;45393;-59
2024/03/15 05:17:39;;;;;;;;;1.33;0.67;;;;;;;;5085916;27;45305;-59
2024/03/15 05:20:09;;;;;;;;;0.00;0.00;;;;;;;;5090452;27;45465;-59
2024/03/15 05:22:34;;;;;;;;;0.25;0.25;;;;;;;;5083372;27;45374;-59
2024/03/15 05:25:00;;;;;;;;;1.00;1.00;;;;;;;;5083293;27;46560;-59
2024/03/15 05:27:25;;;;;;;;;0.67;0.67;;;;;;;;5091907;27;45323;-59
2024/03/15 05:29:50;;;;;;;;;0.00;0.00;;;;;;;;5086681;27;45479;-59
2024/03/15 05:32:16;;;;;;;;;0.67;0.67;;;;;;;;5089931;27;45583;-59
2024/03/15 05:34:41;;;;;;;;;0.67;0.67;;;;;;;;5080651;27;47178;-59
2024/03/15 05:37:06;;;;;;;;;1.33;1.33;;;;;;;;5086160;27;45232;-58
2024/03/15 05:39:33;;;;;;;;;2.00;2.00;;;;;;;;5090561;27;45341;-59
2024/03/15 05:41:58;;;;;;;;;0.75;0.75;;;;;;;;5082030;27;45526;-58
2024/03/15 05:44:23;;;;;;;;;0.33;0.33;;;;;;;;5083618;27;45246;-58
2024/03/15 05:46:50;;;;;;;;;1.67;1.67;;;;;;;;5080384;27;45490;-60
2024/03/15 05:49:15;;;;;;;;;0.25;0.25;;;;;;;;5080005;27;45778;-59
2024/03/15 05:51:42;;;;;;;;;1.33;1.00;;;;;;;;5079257;27;45846;-59
2024/03/15 05:54:08;;;;;;;;;1.67;0.67;;;;;;;;5079192;27;46173;-60
2024/03/15 05:56:33;;;;;;;;;0.67;0.67;;;;;;;;5078920;27;45335;-59
2024/03/15 05:58:58;;;;;;;;;3.00;1.00;;;;;;;;5088325;27;45389;-59
2024/03/15 06:01:24;;;;;;;;;0.67;0.67;;;;;;;;5083370;27;45279;-59
2024/03/15 06:03:49;;;;;;;;;0.50;0.50;;;;;;;;5086499;27;45522;-58
2024/03/15 06:06:14;;;;;;;;;0.00;0.00;;;;;;;;5087583;27;45658;-60
2024/03/15 06:08:42;;;;;;;;;2.75;1.25;;;;;;;;5086460;27;45520;-59
2024/03/15 06:11:07;;;;;;;;;1.00;1.00;;;;;;;;5077184;27;45431;-59
2024/03/15 06:13:32;;;;;;;;;0.50;0.50;;;;;;;;5088350;27;45593;-60
2024/03/15 06:15:58;;;;;;;;;3.67;1.00;;;;;;;;5092974;27;45212;-59
2024/03/15 06:18:23;;;;;;;;;0.75;0.25;;;;;;;;5082433;27;45356;-59
2024/03/15 06:20:48;;;;;;;;;1.00;0.25;;;;;;;;5078887;27;45427;-59
2024/03/15 06:23:14;;;;;;;;;0.75;0.00;;;;;;;;5085710;27;45549;-59
2024/03/15 06:25:40;;;;;;;;;0.25;0.25;;;;;;;;5085081;27;45401;-58
2024/03/15 06:28:10;;;;;;;;;0.67;0.67;;;;;;;;5084410;27;45413;-59
2024/03/15 06:30:42;;;;;;;;;0.75;0.50;;;;;;;;5081676;27;45430;-59
2024/03/15 06:33:07;;;;;;;;;0.50;0.50;;;;;;;;5086658;27;45333;-59
2024/03/15 06:35:32;;;;;;;;;0.75;0.75;;;;;;;;5087020;27;45482;-59
2024/03/15 06:38:09;;;;;;;;;0.75;0.50;;;;;;;;5084199;27;45479;-59
2024/03/15 06:40:56;;;;;;;;;0.67;0.67;;;;;;;;5085371;27;46201;-59
2024/03/15 06:43:41;;;;;;;;;0.67;0.67;;;;;;;;5075098;28;47122;-59
2024/03/15 06:46:19;;;;;;;;;2.67;1.67;;;;;;;;5082074;27;45376;-59
2024/03/15 06:48:54;;;;;;;;;2.00;1.00;;;;;;;;5082900;27;45459;-59
2024/03/15 06:54:03;;;;;;;;;1.00;1.00;;;;;;;;5080278;27;45922;-59
2024/03/15 06:56:28;;;;;;;;;2.33;0.67;;;;;;;;5091813;27;45489;-59
2024/03/15 06:58:54;;;;;;;;;1.33;0.67;;;;;;;;5086633;27;45448;-59
2024/03/15 07:01:19;;;;;;;;;1.67;0.67;;;;;;;;5082367;27;45579;-59
2024/03/15 07:03:45;;;;;;;;;1.00;1.00;;;;;;;;5084166;27;46235;-59
2024/03/15 07:06:10;;;;;;;;;0.67;0.67;;;;;;;;5083734;27;45434;-59
2024/03/15 07:08:37;;;;;;;;;0.00;0.00;;;;;;;;5086552;27;45332;-59
2024/03/15 07:11:03;;;;;;;;;1.00;0.75;;;;;;;;5087427;27;45492;-59
2024/03/15 07:13:30;;;;;;;;;1.25;0.50;;;;;;;;5084854;27;47078;-59
2024/03/15 07:15:55;;;;;;;;;0.00;0.00;;;;;;;;5085268;27;45452;-59
2024/03/15 07:18:20;;;;;;;;;0.25;0.25;;;;;;;;5078958;27;45557;-59
2024/03/15 07:20:45;;;;;;;;;4.50;0.50;;;;;;;;5085904;27;45421;-59
2024/03/15 07:23:11;;;;;;;;;2.25;0.25;;;;;;;;5079324;27;47103;-59
2024/03/15 07:25:36;;;;;;;;;3.50;0.00;;;;;;;;5091748;27;45204;-58
2024/03/15 07:28:02;;;;;;;;;0.50;0.50;;;;;;;;5084478;27;45297;-58
2024/03/15 07:30:28;;;;;;;;;0.50;0.00;;;;;;;;5084433;27;45109;-59
2024/03/15 07:32:53;;;;;;;;;0.00;0.00;;;;;;;;5079608;27;47033;-58
2024/03/15 07:35:18;;;;;;;;;0.25;0.00;;;;;;;;5078005;27;45834;-58
2024/03/15 07:37:46;;;;;;;;;1.33;0.67;;;;;;;;5083801;27;45420;-58
2024/03/15 07:40:12;;;;;;;;;0.67;0.00;;;;;;;;5091434;27;45524;-58
2024/03/15 07:42:37;;;;;;;;;1.33;0.33;;;;;;;;5072773;27;46691;-53
2024/03/15 07:45:04;;;;;;;;;1.67;1.00;;;;;;;;5090353;27;45466;-52
2024/03/15 07:47:29;;;;;;;;;2.67;0.67;;;;;;;;5079363;27;45326;-54
2024/03/15 07:49:55;;;;;;;;;2.75;0.75;;;;;;;;5088423;27;45305;-54
2024/03/15 07:52:20;;;;;;;;;0.00;0.00;;;;;;;;5091808;27;46077;-50
2024/03/15 07:54:45;;;;;;;;;1.00;0.00;;;;;;;;5096934;27;45185;-53
2024/03/15 07:57:10;;;;;;;;;0.00;0.00;;;;;;;;5083895;27;45436;-54
2024/03/15 07:59:36;;;;;;;;;1.75;1.75;;;;;;;;5096806;27;45322;-55
2024/03/15 08:02:03;;;;;;;;;0.75;0.00;;;;;;;;5088666;27;45337;-54
2024/03/15 08:04:29;;;;;;;;;1.00;1.00;;;;;;;;5083147;27;45319;-53
2024/03/15 08:06:55;;;;;;;;;0.75;0.75;;;;;;;;5089802;27;45612;-53
2024/03/15 08:09:23;;;;;;;;;0.75;0.75;;;;;;;;5081757;27;45583;-54
2024/03/15 08:11:48;;;;;;;;;2.75;1.00;;;;;;;;5070822;27;45630;-57
2024/03/15 08:14:13;;;;;;;;;1.00;1.00;;;;;;;;5084165;27;45350;-59
2024/03/15 08:16:41;;;;;;;;;1.00;1.00;;;;;;;;5080265;27;45852;-56
2024/03/15 08:19:10;;;;;;;;;2.50;1.00;;;;;;;;5090340;27;45438;-56
2024/03/15 08:21:38;;;;;;;;;4.00;1.00;;;;;;;;5087708;27;45616;-60
2024/03/15 08:24:04;;;;;;;;;0.00;0.00;;;;;;;;5087301;27;45303;-58
2024/03/15 08:26:33;;;;;;;;;4.00;1.00;;;;;;;;5090215;27;45292;-57
2024/03/15 08:28:58;;;;;;;;;2.50;0.75;;;;;;;;5077039;27;45390;-57
2024/03/15 08:31:24;;;;;;;;;1.00;1.00;;;;;;;;5074963;27;46379;-59
2024/03/15 08:33:49;;;;;;;;;2.00;0.00;;;;;;;;5081366;27;45510;-58
2024/03/15 08:36:14;;;;;;;;;1.00;0.00;;;;;;;;5078986;27;45385;-56
2024/03/15 08:38:40;;;;;;;;;2.50;2.00;;;;;;;;5083780;27;45413;-56
2024/03/15 08:41:06;;;;;;;;;1.50;1.50;;;;;;;;5087861;27;46341;-59
2024/03/15 08:43:31;;;;;;;;;2.67;1.00;;;;;;;;5074238;27;45983;-60
2024/03/15 08:45:56;;;;;;;;;3.00;1.00;;;;;;;;5079260;27;45819;-60
2024/03/15 08:48:21;;;;;;;;;2.00;1.00;;;;;;;;5087797;27;46204;-55
2024/03/15 08:50:46;;;;;;;;;2.75;0.75;;;;;;;;5086924;27;45461;-57
2024/03/15 08:53:12;;;;;;;;;0.33;0.33;;;;;;;;5088524;27;45291;-57
2024/03/15 08:55:38;;;;;;;;;0.75;0.75;;;;;;;;5084804;27;45441;-57
2024/03/15 08:58:04;;;;;;;;;1.00;1.00;;;;;;;;5080389;27;45252;-60
2024/03/15 09:00:29;;;;;;;;;2.00;1.75;;;;;;;;5088303;27;45357;-56
2024/03/15 09:02:55;;;;;;;;;4.67;1.33;;;;;;;;5082886;27;45368;-55
2024/03/15 09:05:20;;;;;;;;;3.25;1.00;;;;;;;;5080927;27;45467;-58
2024/03/15 09:07:47;;;;;;;;;2.67;2.00;;;;;;;;5088499;27;45579;-57
2024/03/15 09:10:15;;;;;;;;;3.33;2.33;;;;;;;;5086722;27;45406;-58
2024/03/15 09:12:41;;;;;;;;;5.75;2.00;;;;;;;;5077813;27;45267;-61
2024/03/15 09:15:08;;;;;;;;;2.25;2.00;;;;;;;;5083851;27;45460;-61
2024/03/15 09:17:33;;;;;;;;;0.75;0.00;;;;;;;;5085237;27;45440;-57
2024/03/15 09:19:59;;;;;;;;;2.75;1.75;;;;;;;;5075472;27;46109;-58
2024/03/15 09:22:24;;;;;;;;;1.75;1.75;;;;;;;;5074631;27;45407;-49
2024/03/15 09:24:51;;;;;;;;;2.00;2.00;;;;;;;;5086680;27;45323;-51
2024/03/15 09:27:17;;;;;;;;;6.25;1.00;;;;;;;;5081484;27;45517;-54
2024/03/15 09:29:47;;;;;;;;;5.25;1.00;;;;;;;;5077334;27;45476;-53
2024/03/15 09:32:12;;;;;;;;;1.00;1.00;;;;;;;;5077996;28;45402;-52
2024/03/15 09:34:40;;;;;;;;;2.00;2.00;;;;;;;;5079286;28;45366;-53
2024/03/15 09:37:06;;;;;;;;;2.00;2.00;;;;;;;;5082295;27;45427;-53
2024/03/15 09:39:32;;;;;;;;;3.00;3.00;;;;;;;;5076140;27;47361;-54
2024/03/15 09:41:57;;;;;;;;;1.00;1.00;;;;;;;;5077468;27;45520;-54
2024/03/15 09:44:22;;;;;;;;;4.00;1.00;;;;;;;;5075168;27;45996;-53
2024/03/15 09:46:48;;;;;;;;;0.25;0.00;;;;;;;;5071775;27;45459;-57
2024/03/15 09:49:17;;;;;;;;;4.25;1.50;;;;;;;;5073519;27;46060;-57
2024/03/15 09:51:43;;;;;;;;;0.25;0.25;;;;;;;;5077713;27;45416;-57
2024/03/15 09:54:09;;;;;;;;;0.75;0.50;;;;;;;;5077899;27;45482;-58
2024/03/15 09:56:35;;;;;;;;;0.75;0.75;;;;;;;;5079364;27;45287;-57
2024/03/15 09:59:00;;;;;;;;;1.50;0.00;;;;;;;;5076598;27;46516;-57
2024/03/15 10:01:25;;;;;;;;;1.00;1.00;;;;;;;;5076423;27;45893;-58
2024/03/15 10:03:51;;;;;;;;;1.00;1.00;;;;;;;;5076155;27;45446;-58
2024/03/15 10:06:17;;;;;;;;;2.75;2.00;;;;;;;;5076461;27;45608;-58
2024/03/15 10:08:43;;;;;;;;;2.00;0.75;;;;;;;;5077584;27;45380;-58
2024/03/15 10:11:08;;;;;;;;;1.25;1.00;;;;;;;;5077923;27;45491;-58
2024/03/15 10:13:36;;;;;;;;;5.75;0.75;;;;;;;;5079361;27;45477;-58
2024/03/15 10:16:04;;;;;;;;;7.75;2.00;;;;;;;;5078570;27;45788;-58
2024/03/15 10:18:31;;;;;;;;;2.50;2.00;;;;;;;;5079414;27;47141;-58
2024/03/15 10:20:57;;;;;;;;;1.75;1.50;;;;;;;;5077733;27;45377;-58
2024/03/15 10:23:22;;;;;;;;;2.75;1.00;;;;;;;;5079073;27;45448;-58
2024/03/15 10:25:51;;;;;;;;;2.50;1.00;;;;;;;;5079184;27;45412;-59
2024/03/15 10:28:19;;;;;;;;;1.00;1.00;;;;;;;;5078507;27;45488;-59
2024/03/15 10:30:45;;;;;;;;;1.00;1.00;;;;;;;;5079529;27;45147;-59
2024/03/15 10:33:11;;;;;;;;;0.50;0.00;;;;;;;;5078910;27;45441;-59
2024/03/15 10:35:36;;;;;;;;;3.00;1.00;;;;;;;;5080668;27;45340;-59
2024/03/15 10:38:03;;;;;;;;;0.25;0.25;;;;;;;;5076958;27;48043;-56
2024/03/15 10:40:32;;;;;;;;;2.00;2.00;;;;;;;;5077810;27;45499;-57
2024/03/15 10:43:00;;;;;;;;;2.75;1.00;;;;;;;;5076698;27;45525;-58
2024/03/15 10:45:25;;;;;;;;;2.00;1.00;;;;;;;;5070607;27;45683;-57
2024/03/15 10:47:51;;;;;;;;;3.25;3.00;;;;;;;;5075696;27;45398;-58
2024/03/15 10:50:17;;;;;;;;;3.00;1.75;;;;;;;;5077710;27;45697;-57
2024/03/15 10:52:49;;;;;;;;;1.00;1.00;;;;;;;;5079484;27;45892;-57
2024/03/15 10:55:16;;;;;;;;;2.00;2.00;;;;;;;;5077917;27;45318;-57
2024/03/15 10:57:42;;;;;;;;;5.50;1.25;;;;;;;;5079295;27;45577;-57
2024/03/15 11:00:21;;;;;;;;;3.00;1.00;;;;;;;;5076410;27;45500;-57
2024/03/15 11:02:46;;;;;;;;;5.25;1.00;;;;;;;;5074247;27;45407;-57
2024/03/15 11:05:22;;;;;;;;;1.50;0.75;;;;;;;;5074625;27;45424;-57
2024/03/15 11:07:49;;;;;;;;;1.25;1.00;;;;;;;;5076410;27;47972;-56
2024/03/15 11:10:15;;;;;;;;;3.00;0.25;;;;;;;;5077005;27;45452;-57
2024/03/15 11:12:40;;;;;;;;;1.00;1.00;;;;;;;;5075587;27;45489;-57
2024/03/15 11:15:12;;;;;;;;;2.00;1.00;;;;;;;;5074430;27;45331;-57
2024/03/15 11:17:37;;;;;;;;;4.00;2.25;;;;;;;;5077549;27;46533;-57
2024/03/15 11:20:05;;;;;;;;;6.00;4.00;;;;;;;;5077816;27;45482;-57
2024/03/15 11:22:30;;;;;;;;;2.00;2.00;;;;;;;;5082258;27;45236;-56
2024/03/15 11:24:57;;;;;;;;;3.00;2.00;;;;;;;;5074487;27;45298;-56
2024/03/15 11:27:24;;;;;;;;;0.25;0.25;;;;;;;;5081176;27;45538;-57
2024/03/15 11:29:55;;;;;;;;;3.25;2.00;;;;;;;;5076910;27;45346;-56
2024/03/15 11:32:21;;;;;;;;;3.75;2.00;;;;;;;;5080413;27;45493;-57
2024/03/15 11:34:48;;;;;;;;;1.00;1.00;;;;;;;;5073631;27;45428;-56
2024/03/15 11:37:14;;;;;;;;;3.25;1.00;;;;;;;;5076686;27;45508;-56
2024/03/15 11:39:40;;;;;;;;;0.00;0.00;;;;;;;;5079822;27;45559;-56
2024/03/15 11:42:06;;;;;;;;;1.00;1.00;;;;;;;;5079268;27;45452;-56
2024/03/15 11:44:32;;;;;;;;;2.25;2.00;;;;;;;;5084429;27;45423;-56
2024/03/15 11:46:57;;;;;;;;;3.00;3.00;;;;;;;;5093853;27;45993;-56
2024/03/15 11:49:23;;;;;;;;;1.00;1.00;;;;;;;;5081621;27;45540;-57
2024/03/15 11:51:58;;;;;;;;;5.50;2.50;;;;;;;;5087968;27;45341;-57
2024/03/15 11:54:23;;;;;;;;;4.50;2.00;;;;;;;;5093318;27;45502;-57
2024/03/15 11:56:57;;;;;;;;;4.50;1.50;;;;;;;;5087648;27;46260;-57
2024/03/15 11:59:23;;;;;;;;;1.50;1.50;;;;;;;;5085378;27;45323;-56
2024/03/15 12:01:48;;;;;;;;;4.25;4.25;;;;;;;;5090960;27;45304;-56
2024/03/15 12:04:13;;;;;;;;;4.00;2.00;;;;;;;;5079051;27;45553;-56
2024/03/15 12:06:39;;;;;;;;;2.75;2.75;;;;;;;;5083369;27;45338;-56
2024/03/15 12:09:12;;;;;;;;;3.75;2.75;;;;;;;;5090428;27;45376;-56
2024/03/15 12:11:37;;;;;;;;;6.00;5.50;;;;;;;;5080482;27;45436;-56
2024/03/15 12:14:03;;;;;;;;;9.00;7.00;;;;;;;;5083968;27;45333;-56
2024/03/15 12:16:28;;;;;;;;;9.33;9.00;;;;;;;;5082624;27;46385;-56
2024/03/15 12:18:53;;;;;;;;;3.75;3.00;;;;;;;;5083909;27;45391;-54
2024/03/15 12:21:19;;;;;;;;;7.67;7.00;;;;;;;;5083416;27;45455;-57
2024/03/15 12:23:44;;;;;;;;;4.25;3.00;;;;;;;;5079592;27;45689;-57
2024/03/15 12:26:09;;;;;;;;;6.00;2.75;;;;;;;;5080405;27;46570;-56
2024/03/15 12:28:34;;;;;;;;;2.50;2.50;;;;;;;;5087704;27;45356;-55
2024/03/15 12:31:00;;;;;;;;;3.25;3.25;;;;;;;;5083744;27;45305;-55
2024/03/15 12:33:25;;;;;;;;;3.50;2.75;;;;;;;;5083587;27;45466;-54
2024/03/15 12:35:50;;;;;;;;;9.25;6.50;;;;;;;;5084684;27;46910;-55
2024/03/15 12:38:21;;;;;;;;;8.33;6.00;;;;;;;;5088024;27;45362;-55
2024/03/15 12:40:47;;;;;;;;;7.33;6.00;;;;;;;;5080792;27;45470;-55
2024/03/15 12:43:12;;;;;;;;;4.50;2.00;;;;;;;;5074250;27;45291;-55
2024/03/15 12:45:40;;;;;;;;;1.00;1.00;;;;;;;;5075230;27;46019;-56
2024/03/15 12:48:06;;;;;;;;;2.50;1.00;;;;;;;;5084018;27;45230;-56
2024/03/15 12:50:33;;;;;;;;;0.00;0.00;;;;;;;;5068287;27;45167;-55
2024/03/15 12:52:59;;;;;;;;;2.25;2.00;;;;;;;;5082932;27;45299;-55
2024/03/15 12:55:24;;;;;;;;;4.00;2.00;;;;;;;;5082989;27;46217;-56
2024/03/15 12:57:50;;;;;;;;;0.00;0.00;;;;;;;;5086448;27;45342;-55
2024/03/15 13:00:17;;;;;;;;;2.00;1.00;;;;;;;;5075929;27;45777;-56
2024/03/15 13:02:42;;;;;;;;;1.25;0.00;;;;;;;;5085331;27;45343;-55
2024/03/15 13:05:11;;;;;;;;;2.50;1.00;;;;;;;;5083334;27;46113;-56
2024/03/15 13:07:36;;;;;;;;;1.25;0.00;;;;;;;;5076588;27;45598;-55
2024/03/15 13:10:02;;;;;;;;;0.00;0.00;;;;;;;;5084082;27;45260;-55
2024/03/15 13:12:27;;;;;;;;;0.00;0.00;;;;;;;;5081683;27;45540;-55
2024/03/15 13:14:54;;;;;;;;;1.00;0.50;;;;;;;;5079077;28;47120;-55
2024/03/15 13:17:19;;;;;;;;;4.25;0.25;;;;;;;;5082025;27;45548;-55
2024/03/15 13:19:44;;;;;;;;;1.00;1.00;;;;;;;;5082370;27;45678;-55
2024/03/15 13:22:10;;;;;;;;;1.00;1.00;;;;;;;;5073918;27;45542;-55
2024/03/15 13:24:36;;;;;;;;;3.00;2.25;;;;;;;;5078871;27;47003;-56
2024/03/15 13:27:01;;;;;;;;;3.00;1.00;;;;;;;;5082523;27;45377;-57
2024/03/15 13:29:27;;;;;;;;;1.25;1.25;;;;;;;;5083731;27;45382;-55
2024/03/15 13:31:52;;;;;;;;;0.00;0.00;;;;;;;;5082816;27;45507;-55
2024/03/15 13:34:17;;;;;;;;;2.75;1.00;;;;;;;;5070685;27;45436;-56
2024/03/15 13:36:42;;;;;;;;;3.75;2.00;;;;;;;;5081004;27;45468;-56
2024/03/15 13:39:19;;;;;;;;;4.00;3.00;;;;;;;;5077479;27;45284;-55
2024/03/15 13:41:45;;;;;;;;;4.00;4.00;;;;;;;;5081820;27;45531;-55
2024/03/15 13:44:13;;;;;;;;;3.50;3.50;;;;;;;;5068050;27;46070;-54
2024/03/15 13:46:38;;;;;;;;;7.00;4.00;;;;;;;;5082269;27;45291;-55
2024/03/15 13:49:03;;;;;;;;;2.00;2.00;;;;;;;;5080730;27;45509;-56
2024/03/15 13:51:28;;;;;;;;;1.75;1.75;;;;;;;;5082829;27;45333;-57
2024/03/15 13:53:55;;;;;;;;;2.00;2.00;;;;;;;;5077285;27;47150;-56
2024/03/15 13:56:21;;;;;;;;;0.25;0.00;;;;;;;;5078771;27;45688;-55
2024/03/15 13:58:46;;;;;;;;;0.50;0.50;;;;;;;;5080202;27;45447;-55
2024/03/15 14:01:11;;;;;;;;;2.00;1.00;;;;;;;;5074728;27;45344;-56
2024/03/15 14:03:36;;;;;;;;;1.00;1.00;;;;;;;;5077417;27;46101;-56
2024/03/15 14:06:03;;;;;;;;;3.25;0.75;;;;;;;;5075644;27;45389;-56
2024/03/15 14:08:29;;;;;;;;;2.00;0.25;;;;;;;;5078107;27;45398;-55
2024/03/15 14:10:54;;;;;;;;;0.00;0.00;;;;;;;;5077111;27;45711;-55
2024/03/15 14:13:19;;;;;;;;;1.75;0.50;;;;;;;;5078691;27;45417;-56
2024/03/15 14:15:46;;;;;;;;;1.50;1.00;;;;;;;;5080672;27;45417;-56
2024/03/15 14:18:12;;;;;;;;;2.00;1.00;;;;;;;;5072735;27;45421;-56
2024/03/15 14:20:38;;;;;;;;;1.00;1.00;;;;;;;;5080423;27;45216;-56
2024/03/15 14:23:03;;;;;;;;;1.00;1.00;;;;;;;;5073821;27;46737;-55
2024/03/15 14:25:34;;;;;;;;;2.00;0.00;;;;;;;;5080418;27;45317;-55
2024/03/15 14:28:01;;;;;;;;;1.25;1.00;;;;;;;;5078658;27;45224;-55
2024/03/15 14:30:28;;;;;;;;;0.50;0.50;;;;;;;;5077588;28;45531;-55
2024/03/15 14:32:54;;;;;;;;;3.25;0.50;;;;;;;;5078629;28;45330;-55
2024/03/15 14:35:20;;;;;;;;;2.25;1.00;;;;;;;;5078890;27;45732;-55
2024/03/15 14:37:45;;;;;;;;;3.50;0.25;;;;;;;;5075848;27;45470;-56
2024/03/15 14:40:21;;;;;;;;;1.75;1.75;;;;;;;;5078902;27;45337;-56